Pagrindinis puslapis
METAR-TAF:

METAR-TAF

Oro uostai :

Šarm el Šeichas, Egiptas

platuma: 27-58N, ilguma: 034-23E, Aukštis: 50 m

Dabartinis oras

Ataskaita buvo paskelbta 1 valandą ir 9 minutes, ne 12:00 UTC
Vėjas 7 kt iš Šiaurės Rytų
Temperatūra 33°C
Drėgmė 24%
Slėgis 1007 hPa
Matomumas 10 km arba daugiau
nėra debesų žemiau 1500 m ir nėra kamuolinių lietaus debesų

METAR: HESH 201200Z 04007KT CAVOK 33/10 Q1007 NOSIG

Laikas: 15:09 (13:09 UTC)

Prognozė

Ataskaita buvo paskelbta 2 valandos ir 9 minutes, ne 11:00 UTC
Prognozė galioja nuo 20 metu 12 UTC su 21 metu 18 UTC
Vėjas 10 kt iš Pietų
Matomumas 10 km arba daugiau
nėra debesų žemiau 1500 m ir nėra kamuolinių lietaus debesų

TAF: HESH 201100Z 2012/2118 19010KT CAVOK

Orai ataskaitas ir orų prognozės (METAR, TAF).

turimą stotys yra geltonos ir raudonos taškus žemėlapyje.

Perkelti pele per norėdami pamatyti stoties vardą.

Tada spustelėkite, norėdami matyti oro stebėjimo ir prognozės.

Norėdami pakeisti žemėlapį: spustelėkite ant žalios mygtukų su juodo kryžiaus žemyn,; žalią mygtuką su brūkšneliu, jei norite nutolinti; arba žalių rodyklių gretimoms žemėlapius.


METAR-TAF: